sensor_id;sensor_type;location;lat;lon;timestamp;P1;durP1;ratioP1;P2;durP2;ratioP2
24813;SDS011;12904;50.088;11.414;2023-03-23T00:01:53;2.30;;;2.00;;
24813;SDS011;12904;50.088;11.414;2023-03-23T00:04:19;3.17;;;2.22;;
24813;SDS011;12904;50.088;11.414;2023-03-23T00:06:45;3.55;;;2.03;;
24813;SDS011;12904;50.088;11.414;2023-03-23T00:09:12;6.45;;;1.67;;
24813;SDS011;12904;50.088;11.414;2023-03-23T00:11:40;3.92;;;1.83;;
24813;SDS011;12904;50.088;11.414;2023-03-23T00:14:07;1.92;;;1.25;;
24813;SDS011;12904;50.088;11.414;2023-03-23T00:16:39;0.98;;;0.82;;
24813;SDS011;12904;50.088;11.414;2023-03-23T00:19:12;0.95;;;0.80;;
24813;SDS011;12904;50.088;11.414;2023-03-23T00:21:38;1.45;;;0.65;;
24813;SDS011;12904;50.088;11.414;2023-03-23T00:24:10;1.60;;;1.08;;
24813;SDS011;12904;50.088;11.414;2023-03-23T00:26:44;1.85;;;0.70;;
24813;SDS011;12904;50.088;11.414;2023-03-23T00:29:15;2.35;;;0.60;;
24813;SDS011;12904;50.088;11.414;2023-03-23T00:31:43;0.55;;;0.55;;
24813;SDS011;12904;50.088;11.414;2023-03-23T00:34:17;1.33;;;0.50;;
24813;SDS011;12904;50.088;11.414;2023-03-23T00:36:48;1.20;;;0.60;;
24813;SDS011;12904;50.088;11.414;2023-03-23T00:39:15;1.83;;;0.60;;
24813;SDS011;12904;50.088;11.414;2023-03-23T00:41:42;0.70;;;0.60;;
24813;SDS011;12904;50.088;11.414;2023-03-23T00:44:08;0.77;;;0.70;;
24813;SDS011;12904;50.088;11.414;2023-03-23T00:46:34;0.80;;;0.70;;
24813;SDS011;12904;50.088;11.414;2023-03-23T00:49:09;3.53;;;0.82;;
24813;SDS011;12904;50.088;11.414;2023-03-23T00:51:39;0.70;;;0.60;;
24813;SDS011;12904;50.088;11.414;2023-03-23T00:54:06;1.58;;;0.60;;
24813;SDS011;12904;50.088;11.414;2023-03-23T00:56:32;4.15;;;0.57;;
24813;SDS011;12904;50.088;11.414;2023-03-23T00:58:58;1.05;;;0.80;;
24813;SDS011;12904;50.088;11.414;2023-03-23T01:01:23;1.33;;;0.60;;
24813;SDS011;12904;50.088;11.414;2023-03-23T01:03:49;1.00;;;0.70;;
24813;SDS011;12904;50.088;11.414;2023-03-23T01:06:15;2.13;;;0.73;;
24813;SDS011;12904;50.088;11.414;2023-03-23T01:08:41;1.95;;;0.70;;
24813;SDS011;12904;50.088;11.414;2023-03-23T01:11:11;1.83;;;1.05;;
24813;SDS011;12904;50.088;11.414;2023-03-23T01:13:39;1.48;;;0.82;;
24813;SDS011;12904;50.088;11.414;2023-03-23T01:16:06;0.90;;;0.80;;
24813;SDS011;12904;50.088;11.414;2023-03-23T01:18:31;2.10;;;1.00;;
24813;SDS011;12904;50.088;11.414;2023-03-23T01:20:57;1.33;;;0.70;;
24813;SDS011;12904;50.088;11.414;2023-03-23T01:23:27;1.58;;;0.90;;
24813;SDS011;12904;50.088;11.414;2023-03-23T01:25:53;1.20;;;1.05;;
24813;SDS011;12904;50.088;11.414;2023-03-23T01:28:22;1.52;;;1.00;;
24813;SDS011;12904;50.088;11.414;2023-03-23T01:30:48;3.47;;;1.30;;
24813;SDS011;12904;50.088;11.414;2023-03-23T01:33:14;3.70;;;1.52;;
24813;SDS011;12904;50.088;11.414;2023-03-23T01:35:40;2.83;;;1.42;;
24813;SDS011;12904;50.088;11.414;2023-03-23T01:38:05;2.38;;;1.95;;
24813;SDS011;12904;50.088;11.414;2023-03-23T01:40:31;1.90;;;1.50;;
24813;SDS011;12904;50.088;11.414;2023-03-23T01:42:56;2.55;;;1.85;;
24813;SDS011;12904;50.088;11.414;2023-03-23T01:45:26;3.58;;;2.00;;
24813;SDS011;12904;50.088;11.414;2023-03-23T01:50:24;2.20;;;1.60;;
24813;SDS011;12904;50.088;11.414;2023-03-23T01:52:52;4.15;;;1.80;;
24813;SDS011;12904;50.088;11.414;2023-03-23T01:55:20;2.38;;;1.65;;
24813;SDS011;12904;50.088;11.414;2023-03-23T01:57:47;4.28;;;1.50;;
24813;SDS011;12904;50.088;11.414;2023-03-23T02:00:14;5.38;;;1.63;;
24813;SDS011;12904;50.088;11.414;2023-03-23T02:02:41;2.42;;;1.42;;
24813;SDS011;12904;50.088;11.414;2023-03-23T02:05:10;2.15;;;1.40;;
24813;SDS011;12904;50.088;11.414;2023-03-23T02:07:39;2.58;;;1.50;;
24813;SDS011;12904;50.088;11.414;2023-03-23T02:10:06;2.97;;;1.55;;
24813;SDS011;12904;50.088;11.414;2023-03-23T02:12:32;2.55;;;1.77;;
24813;SDS011;12904;50.088;11.414;2023-03-23T02:14:58;2.88;;;1.90;;
24813;SDS011;12904;50.088;11.414;2023-03-23T02:41:21;3.03;;;1.40;;
24813;SDS011;12904;50.088;11.414;2023-03-23T02:43:51;3.05;;;1.33;;
24813;SDS011;12904;50.088;11.414;2023-03-23T02:46:18;4.22;;;1.80;;
24813;SDS011;12904;50.088;11.414;2023-03-23T02:48:46;2.17;;;1.73;;
24813;SDS011;12904;50.088;11.414;2023-03-23T02:51:15;2.15;;;1.40;;
24813;SDS011;12904;50.088;11.414;2023-03-23T02:53:44;1.95;;;1.70;;
24813;SDS011;12904;50.088;11.414;2023-03-23T02:56:12;1.85;;;1.60;;
24813;SDS011;12904;50.088;11.414;2023-03-23T02:58:39;1.92;;;1.40;;
24813;SDS011;12904;50.088;11.414;2023-03-23T03:02:06;2.53;;;1.40;;
24813;SDS011;12904;50.088;11.414;2023-03-23T03:04:24;2.88;;;1.30;;
24813;SDS011;12904;50.088;11.414;2023-03-23T03:11:46;2.60;;;1.10;;
24813;SDS011;12904;50.088;11.414;2023-03-23T03:14:32;1.92;;;1.30;;
24813;SDS011;12904;50.088;11.414;2023-03-23T03:17:13;4.28;;;1.60;;
24813;SDS011;12904;50.088;11.414;2023-03-23T03:19:42;2.03;;;1.30;;
24813;SDS011;12904;50.088;11.414;2023-03-23T03:22:11;2.08;;;1.27;;
24813;SDS011;12904;50.088;11.414;2023-03-23T03:24:38;1.60;;;1.05;;
24813;SDS011;12904;50.088;11.414;2023-03-23T03:27:05;2.45;;;1.30;;
24813;SDS011;12904;50.088;11.414;2023-03-23T03:29:40;1.90;;;1.42;;
24813;SDS011;12904;50.088;11.414;2023-03-23T03:32:08;3.22;;;1.35;;
24813;SDS011;12904;50.088;11.414;2023-03-23T03:34:37;6.10;;;1.60;;
24813;SDS011;12904;50.088;11.414;2023-03-23T03:37:04;1.63;;;1.38;;
24813;SDS011;12904;50.088;11.414;2023-03-23T03:39:33;2.70;;;1.70;;
24813;SDS011;12904;50.088;11.414;2023-03-23T03:42:01;1.50;;;1.13;;
24813;SDS011;12904;50.088;11.414;2023-03-23T03:44:27;1.38;;;1.20;;
24813;SDS011;12904;50.088;11.414;2023-03-23T03:46:53;2.83;;;1.50;;
24813;SDS011;12904;50.088;11.414;2023-03-23T03:49:18;3.00;;;1.38;;
24813;SDS011;12904;50.088;11.414;2023-03-23T03:51:44;3.53;;;1.60;;
24813;SDS011;12904;50.088;11.414;2023-03-23T03:54:10;1.65;;;1.30;;
24813;SDS011;12904;50.088;11.414;2023-03-23T03:56:36;2.20;;;1.55;;
24813;SDS011;12904;50.088;11.414;2023-03-23T03:59:05;3.05;;;1.50;;
24813;SDS011;12904;50.088;11.414;2023-03-23T04:01:32;1.83;;;1.27;;
24813;SDS011;12904;50.088;11.414;2023-03-23T04:03:59;2.70;;;1.67;;
24813;SDS011;12904;50.088;11.414;2023-03-23T04:06:25;1.88;;;1.20;;
24813;SDS011;12904;50.088;11.414;2023-03-23T04:08:53;2.08;;;1.52;;
24813;SDS011;12904;50.088;11.414;2023-03-23T04:11:23;1.25;;;1.13;;
24813;SDS011;12904;50.088;11.414;2023-03-23T04:13:50;2.67;;;1.45;;
24813;SDS011;12904;50.088;11.414;2023-03-23T04:16:16;2.65;;;1.60;;
24813;SDS011;12904;50.088;11.414;2023-03-23T04:18:42;2.00;;;1.00;;
24813;SDS011;12904;50.088;11.414;2023-03-23T04:21:09;2.28;;;1.40;;
24813;SDS011;12904;50.088;11.414;2023-03-23T04:23:35;1.50;;;1.30;;
24813;SDS011;12904;50.088;11.414;2023-03-23T04:26:02;2.90;;;1.30;;
24813;SDS011;12904;50.088;11.414;2023-03-23T04:28:28;1.90;;;1.20;;
24813;SDS011;12904;50.088;11.414;2023-03-23T04:30:58;1.48;;;1.38;;
24813;SDS011;12904;50.088;11.414;2023-03-23T04:33:25;2.42;;;1.40;;
24813;SDS011;12904;50.088;11.414;2023-03-23T04:35:55;2.92;;;1.20;;
24813;SDS011;12904;50.088;11.414;2023-03-23T04:38:23;1.75;;;1.48;;
24813;SDS011;12904;50.088;11.414;2023-03-23T04:40:49;2.10;;;1.50;;
24813;SDS011;12904;50.088;11.414;2023-03-23T04:43:17;1.80;;;1.13;;
24813;SDS011;12904;50.088;11.414;2023-03-23T04:45:47;1.90;;;1.43;;
24813;SDS011;12904;50.088;11.414;2023-03-23T04:48:20;1.40;;;1.20;;
24813;SDS011;12904;50.088;11.414;2023-03-23T04:50:49;2.83;;;1.48;;
24813;SDS011;12904;50.088;11.414;2023-03-23T04:53:16;1.35;;;1.20;;
24813;SDS011;12904;50.088;11.414;2023-03-23T04:55:43;1.15;;;1.05;;
24813;SDS011;12904;50.088;11.414;2023-03-23T04:58:09;1.30;;;1.20;;
24813;SDS011;12904;50.088;11.414;2023-03-23T05:00:37;3.85;;;1.67;;
24813;SDS011;12904;50.088;11.414;2023-03-23T05:03:03;2.30;;;1.20;;
24813;SDS011;12904;50.088;11.414;2023-03-23T05:05:29;1.70;;;1.20;;
24813;SDS011;12904;50.088;11.414;2023-03-23T05:07:55;2.63;;;1.08;;
24813;SDS011;12904;50.088;11.414;2023-03-23T05:10:22;2.88;;;1.40;;
24813;SDS011;12904;50.088;11.414;2023-03-23T05:12:48;2.03;;;1.20;;
24813;SDS011;12904;50.088;11.414;2023-03-23T05:15:15;3.08;;;1.35;;
24813;SDS011;12904;50.088;11.414;2023-03-23T05:17:41;2.22;;;1.20;;
24813;SDS011;12904;50.088;11.414;2023-03-23T05:20:11;2.10;;;1.38;;
24813;SDS011;12904;50.088;11.414;2023-03-23T05:22:39;2.85;;;1.20;;
24813;SDS011;12904;50.088;11.414;2023-03-23T05:25:09;3.08;;;1.40;;
24813;SDS011;12904;50.088;11.414;2023-03-23T05:27:36;2.38;;;1.00;;
24813;SDS011;12904;50.088;11.414;2023-03-23T05:30:02;1.95;;;1.30;;
24813;SDS011;12904;50.088;11.414;2023-03-23T05:32:29;1.38;;;1.10;;
24813;SDS011;12904;50.088;11.414;2023-03-23T05:34:56;3.28;;;1.30;;
24813;SDS011;12904;50.088;11.414;2023-03-23T05:37:22;2.03;;;1.30;;
24813;SDS011;12904;50.088;11.414;2023-03-23T05:39:49;3.10;;;1.20;;
24813;SDS011;12904;50.088;11.414;2023-03-23T05:42:18;2.38;;;1.23;;
24813;SDS011;12904;50.088;11.414;2023-03-23T05:44:47;2.30;;;1.58;;
24813;SDS011;12904;50.088;11.414;2023-03-23T05:47:13;1.40;;;1.00;;
24813;SDS011;12904;50.088;11.414;2023-03-23T05:49:39;2.20;;;1.10;;
24813;SDS011;12904;50.088;11.414;2023-03-23T05:52:05;1.27;;;1.17;;
24813;SDS011;12904;50.088;11.414;2023-03-23T05:54:31;1.70;;;1.50;;
24813;SDS011;12904;50.088;11.414;2023-03-23T05:56:56;4.03;;;1.10;;
24813;SDS011;12904;50.088;11.414;2023-03-23T05:59:22;1.30;;;1.20;;
24813;SDS011;12904;50.088;11.414;2023-03-23T06:01:48;1.77;;;1.17;;
24813;SDS011;12904;50.088;11.414;2023-03-23T06:04:15;1.60;;;1.00;;
24813;SDS011;12904;50.088;11.414;2023-03-23T06:06:41;1.50;;;1.10;;
24813;SDS011;12904;50.088;11.414;2023-03-23T06:09:08;2.05;;;1.17;;
24813;SDS011;12904;50.088;11.414;2023-03-23T06:11:34;1.52;;;1.08;;
24813;SDS011;12904;50.088;11.414;2023-03-23T06:14:00;2.22;;;1.25;;
24813;SDS011;12904;50.088;11.414;2023-03-23T06:16:26;3.00;;;1.40;;
24813;SDS011;12904;50.088;11.414;2023-03-23T06:18:52;2.35;;;1.42;;
24813;SDS011;12904;50.088;11.414;2023-03-23T06:21:18;1.55;;;1.38;;
24813;SDS011;12904;50.088;11.414;2023-03-23T06:23:44;2.15;;;1.10;;
24813;SDS011;12904;50.088;11.414;2023-03-23T06:26:10;2.75;;;1.30;;
24813;SDS011;12904;50.088;11.414;2023-03-23T06:28:39;2.88;;;1.23;;
24813;SDS011;12904;50.088;11.414;2023-03-23T06:31:05;1.20;;;1.00;;
24813;SDS011;12904;50.088;11.414;2023-03-23T06:33:36;4.97;;;1.13;;
24813;SDS011;12904;50.088;11.414;2023-03-23T06:36:03;3.03;;;1.10;;
24813;SDS011;12904;50.088;11.414;2023-03-23T06:38:29;1.73;;;1.27;;
24813;SDS011;12904;50.088;11.414;2023-03-23T06:40:56;2.55;;;1.20;;
24813;SDS011;12904;50.088;11.414;2023-03-23T06:43:22;2.85;;;1.55;;
24813;SDS011;12904;50.088;11.414;2023-03-23T06:45:49;1.05;;;0.95;;
24813;SDS011;12904;50.088;11.414;2023-03-23T06:48:16;1.65;;;1.08;;
24813;SDS011;12904;50.088;11.414;2023-03-23T06:50:42;4.22;;;1.30;;
24813;SDS011;12904;50.088;11.414;2023-03-23T06:53:09;1.92;;;1.17;;
24813;SDS011;12904;50.088;11.414;2023-03-23T06:55:35;2.60;;;1.35;;
24813;SDS011;12904;50.088;11.414;2023-03-23T06:58:02;2.58;;;1.20;;
24813;SDS011;12904;50.088;11.414;2023-03-23T07:00:29;2.15;;;1.20;;
24813;SDS011;12904;50.088;11.414;2023-03-23T07:02:55;2.15;;;1.30;;
24813;SDS011;12904;50.088;11.414;2023-03-23T07:05:21;1.83;;;1.17;;
24813;SDS011;12904;50.088;11.414;2023-03-23T07:07:46;5.05;;;1.42;;
24813;SDS011;12904;50.088;11.414;2023-03-23T07:10:12;2.28;;;1.30;;
24813;SDS011;12904;50.088;11.414;2023-03-23T07:12:38;1.95;;;1.30;;
24813;SDS011;12904;50.088;11.414;2023-03-23T07:15:05;4.15;;;1.30;;
24813;SDS011;12904;50.088;11.414;2023-03-23T07:17:34;4.05;;;1.63;;
24813;SDS011;12904;50.088;11.414;2023-03-23T07:20:00;3.20;;;1.40;;
24813;SDS011;12904;50.088;11.414;2023-03-23T07:22:25;2.80;;;1.35;;
24813;SDS011;12904;50.088;11.414;2023-03-23T07:24:51;5.20;;;1.98;;
24813;SDS011;12904;50.088;11.414;2023-03-23T07:27:17;2.42;;;1.20;;
24813;SDS011;12904;50.088;11.414;2023-03-23T07:29:42;1.92;;;1.20;;
24813;SDS011;12904;50.088;11.414;2023-03-23T07:32:10;1.92;;;1.45;;
24813;SDS011;12904;50.088;11.414;2023-03-23T07:34:37;3.00;;;1.45;;
24813;SDS011;12904;50.088;11.414;2023-03-23T07:37:03;2.75;;;1.40;;
24813;SDS011;12904;50.088;11.414;2023-03-23T07:39:29;2.40;;;1.40;;
24813;SDS011;12904;50.088;11.414;2023-03-23T07:41:55;3.53;;;2.00;;
24813;SDS011;12904;50.088;11.414;2023-03-23T07:44:21;2.67;;;2.20;;
24813;SDS011;12904;50.088;11.414;2023-03-23T07:46:47;2.47;;;1.65;;
24813;SDS011;12904;50.088;11.414;2023-03-23T07:49:13;4.78;;;1.73;;
24813;SDS011;12904;50.088;11.414;2023-03-23T07:51:39;3.33;;;2.08;;
24813;SDS011;12904;50.088;11.414;2023-03-23T07:54:06;2.08;;;1.88;;
24813;SDS011;12904;50.088;11.414;2023-03-23T07:56:35;15.00;;;2.00;;
24813;SDS011;12904;50.088;11.414;2023-03-23T07:59:02;2.00;;;1.80;;
24813;SDS011;12904;50.088;11.414;2023-03-23T08:01:29;4.93;;;1.60;;
24813;SDS011;12904;50.088;11.414;2023-03-23T08:03:55;4.15;;;1.92;;
24813;SDS011;12904;50.088;11.414;2023-03-23T08:06:22;5.85;;;1.92;;
24813;SDS011;12904;50.088;11.414;2023-03-23T08:08:49;2.22;;;1.90;;
24813;SDS011;12904;50.088;11.414;2023-03-23T08:11:15;3.30;;;1.60;;
24813;SDS011;12904;50.088;11.414;2023-03-23T08:13:42;2.22;;;1.70;;
24813;SDS011;12904;50.088;11.414;2023-03-23T08:16:08;2.13;;;1.65;;
24813;SDS011;12904;50.088;11.414;2023-03-23T08:18:34;1.98;;;1.52;;
24813;SDS011;12904;50.088;11.414;2023-03-23T08:21:01;2.42;;;1.73;;
24813;SDS011;12904;50.088;11.414;2023-03-23T08:23:29;3.25;;;1.73;;
24813;SDS011;12904;50.088;11.414;2023-03-23T08:25:55;4.00;;;2.00;;
24813;SDS011;12904;50.088;11.414;2023-03-23T08:28:22;2.30;;;1.73;;
24813;SDS011;12904;50.088;11.414;2023-03-23T08:30:48;4.82;;;2.00;;
24813;SDS011;12904;50.088;11.414;2023-03-23T08:33:14;3.58;;;1.80;;
24813;SDS011;12904;50.088;11.414;2023-03-23T08:35:41;2.80;;;1.98;;
24813;SDS011;12904;50.088;11.414;2023-03-23T08:38:08;2.47;;;1.95;;
24813;SDS011;12904;50.088;11.414;2023-03-23T08:40:37;2.10;;;1.60;;
24813;SDS011;12904;50.088;11.414;2023-03-23T08:43:04;3.05;;;1.63;;
24813;SDS011;12904;50.088;11.414;2023-03-23T08:45:30;2.53;;;1.83;;
24813;SDS011;12904;50.088;11.414;2023-03-23T08:47:55;2.95;;;2.10;;
24813;SDS011;12904;50.088;11.414;2023-03-23T08:50:23;2.08;;;1.42;;
24813;SDS011;12904;50.088;11.414;2023-03-23T08:52:51;1.60;;;1.48;;
24813;SDS011;12904;50.088;11.414;2023-03-23T08:55:19;3.97;;;1.60;;
24813;SDS011;12904;50.088;11.414;2023-03-23T08:57:46;4.63;;;1.60;;
24813;SDS011;12904;50.088;11.414;2023-03-23T09:00:13;3.08;;;1.90;;
24813;SDS011;12904;50.088;11.414;2023-03-23T09:02:47;2.25;;;1.60;;
24813;SDS011;12904;50.088;11.414;2023-03-23T09:05:15;1.98;;;1.58;;
24813;SDS011;12904;50.088;11.414;2023-03-23T09:07:42;2.20;;;1.50;;
24813;SDS011;12904;50.088;11.414;2023-03-23T09:10:11;1.80;;;1.42;;
24813;SDS011;12904;50.088;11.414;2023-03-23T09:12:38;2.83;;;1.33;;
24813;SDS011;12904;50.088;11.414;2023-03-23T09:15:04;2.75;;;1.30;;
24813;SDS011;12904;50.088;11.414;2023-03-23T09:17:33;2.83;;;1.63;;
24813;SDS011;12904;50.088;11.414;2023-03-23T09:20:05;2.63;;;1.77;;
24813;SDS011;12904;50.088;11.414;2023-03-23T09:22:38;4.40;;;1.55;;
24813;SDS011;12904;50.088;11.414;2023-03-23T09:25:06;4.68;;;2.28;;
24813;SDS011;12904;50.088;11.414;2023-03-23T09:27:33;3.15;;;1.23;;
24813;SDS011;12904;50.088;11.414;2023-03-23T09:30:01;1.50;;;1.35;;
24813;SDS011;12904;50.088;11.414;2023-03-23T09:32:31;3.13;;;1.70;;
24813;SDS011;12904;50.088;11.414;2023-03-23T09:35:01;1.60;;;1.33;;
24813;SDS011;12904;50.088;11.414;2023-03-23T09:37:28;1.90;;;1.27;;
24813;SDS011;12904;50.088;11.414;2023-03-23T09:39:54;7.57;;;1.58;;
24813;SDS011;12904;50.088;11.414;2023-03-23T09:45:43;2.05;;;1.20;;
24813;SDS011;12904;50.088;11.414;2023-03-23T09:54:05;1.50;;;1.30;;
24813;SDS011;12904;50.088;11.414;2023-03-23T09:56:43;1.60;;;1.17;;
24813;SDS011;12904;50.088;11.414;2023-03-23T10:02:11;1.92;;;1.20;;
24813;SDS011;12904;50.088;11.414;2023-03-23T10:04:46;4.80;;;1.40;;
24813;SDS011;12904;50.088;11.414;2023-03-23T10:07:14;4.88;;;1.50;;
24813;SDS011;12904;50.088;11.414;2023-03-23T10:10:08;2.10;;;1.27;;
24813;SDS011;12904;50.088;11.414;2023-03-23T10:25:32;4.30;;;1.60;;
24813;SDS011;12904;50.088;11.414;2023-03-23T10:28:05;1.70;;;1.40;;
24813;SDS011;12904;50.088;11.414;2023-03-23T10:31:09;5.55;;;1.50;;
24813;SDS011;12904;50.088;11.414;2023-03-23T10:33:34;1.55;;;1.23;;
24813;SDS011;12904;50.088;11.414;2023-03-23T10:41:37;3.17;;;1.30;;
24813;SDS011;12904;50.088;11.414;2023-03-23T10:44:22;1.58;;;1.30;;
24813;SDS011;12904;50.088;11.414;2023-03-23T10:46:59;1.42;;;1.25;;
24813;SDS011;12904;50.088;11.414;2023-03-23T10:49:36;2.08;;;1.40;;
24813;SDS011;12904;50.088;11.414;2023-03-23T10:52:35;1.90;;;1.35;;
24813;SDS011;12904;50.088;11.414;2023-03-23T10:57:39;2.55;;;1.30;;
24813;SDS011;12904;50.088;11.414;2023-03-23T11:00:23;1.92;;;1.40;;
24813;SDS011;12904;50.088;11.414;2023-03-23T11:03:05;1.60;;;1.15;;
24813;SDS011;12904;50.088;11.414;2023-03-23T11:06:19;3.20;;;1.40;;
24813;SDS011;12904;50.088;11.414;2023-03-23T11:08:48;1.38;;;1.00;;
24813;SDS011;12904;50.088;11.414;2023-03-23T11:11:21;3.72;;;1.33;;
24813;SDS011;12904;50.088;11.414;2023-03-23T11:13:58;1.33;;;1.20;;
24813;SDS011;12904;50.088;11.414;2023-03-23T11:16:42;1.80;;;1.40;;
24813;SDS011;12904;50.088;11.414;2023-03-23T11:19:20;1.30;;;1.20;;
24813;SDS011;12904;50.088;11.414;2023-03-23T11:21:51;2.75;;;1.35;;
24813;SDS011;12904;50.088;11.414;2023-03-23T11:24:21;1.60;;;1.50;;
24813;SDS011;12904;50.088;11.414;2023-03-23T11:26:48;1.42;;;1.15;;
24813;SDS011;12904;50.088;11.414;2023-03-23T11:29:16;2.55;;;1.00;;
24813;SDS011;12904;50.088;11.414;2023-03-23T11:34:42;1.63;;;1.10;;
24813;SDS011;12904;50.088;11.414;2023-03-23T11:37:14;1.75;;;1.00;;
24813;SDS011;12904;50.088;11.414;2023-03-23T11:39:49;1.77;;;0.90;;
24813;SDS011;12904;50.088;11.414;2023-03-23T11:45:36;1.05;;;0.60;;
24813;SDS011;12904;50.088;11.414;2023-03-23T11:51:00;0.90;;;0.73;;
24813;SDS011;12904;50.088;11.414;2023-03-23T11:58:50;1.60;;;0.80;;
24813;SDS011;12904;50.088;11.414;2023-03-23T12:01:28;1.15;;;0.85;;
24813;SDS011;12904;50.088;11.414;2023-03-23T12:06:54;1.30;;;0.90;;
24813;SDS011;12904;50.088;11.414;2023-03-23T12:12:29;1.00;;;0.88;;
24813;SDS011;12904;50.088;11.414;2023-03-23T12:26:17;1.20;;;0.80;;
24813;SDS011;12904;50.088;11.414;2023-03-23T12:31:37;1.00;;;0.73;;
24813;SDS011;12904;50.088;11.414;2023-03-23T12:34:43;1.13;;;0.68;;
24813;SDS011;12904;50.088;11.414;2023-03-23T12:48:29;1.25;;;0.70;;
24813;SDS011;12904;50.088;11.414;2023-03-23T12:51:02;0.77;;;0.53;;
24813;SDS011;12904;50.088;11.414;2023-03-23T12:53:36;0.60;;;0.60;;
24813;SDS011;12904;50.088;11.414;2023-03-23T12:56:19;0.90;;;0.70;;
24813;SDS011;12904;50.088;11.414;2023-03-23T12:59:11;0.68;;;0.60;;
24813;SDS011;12904;50.088;11.414;2023-03-23T13:01:59;0.90;;;0.60;;
24813;SDS011;12904;50.088;11.414;2023-03-23T13:04:43;0.50;;;0.50;;
24813;SDS011;12904;50.088;11.414;2023-03-23T13:07:17;0.80;;;0.50;;
24813;SDS011;12904;50.088;11.414;2023-03-23T13:10:05;0.88;;;0.80;;
24813;SDS011;12904;50.088;11.414;2023-03-23T13:12:40;0.50;;;0.50;;
24813;SDS011;12904;50.088;11.414;2023-03-23T13:15:13;0.77;;;0.60;;
24813;SDS011;12904;50.088;11.414;2023-03-23T13:23:40;2.30;;;0.70;;
24813;SDS011;12904;50.088;11.414;2023-03-23T13:26:10;0.95;;;0.60;;
24813;SDS011;12904;50.088;11.414;2023-03-23T13:36:27;2.63;;;0.90;;
24813;SDS011;12904;50.088;11.414;2023-03-23T13:38:56;1.00;;;0.90;;
24813;SDS011;12904;50.088;11.414;2023-03-23T13:41:24;1.25;;;0.80;;
24813;SDS011;12904;50.088;11.414;2023-03-23T13:43:51;2.05;;;1.00;;
24813;SDS011;12904;50.088;11.414;2023-03-23T13:48:43;2.42;;;1.23;;
24813;SDS011;12904;50.088;11.414;2023-03-23T13:56:48;1.88;;;1.30;;
24813;SDS011;12904;50.088;11.414;2023-03-23T14:01:52;3.25;;;1.10;;
24813;SDS011;12904;50.088;11.414;2023-03-23T14:04:20;1.27;;;1.00;;
24813;SDS011;12904;50.088;11.414;2023-03-23T14:06:48;1.25;;;1.10;;
24813;SDS011;12904;50.088;11.414;2023-03-23T14:09:16;2.25;;;1.17;;
24813;SDS011;12904;50.088;11.414;2023-03-23T14:11:58;1.30;;;1.20;;
24813;SDS011;12904;50.088;11.414;2023-03-23T14:14:33;2.35;;;1.02;;
24813;SDS011;12904;50.088;11.414;2023-03-23T14:17:21;2.97;;;1.10;;
24813;SDS011;12904;50.088;11.414;2023-03-23T14:19:53;1.95;;;1.00;;
24813;SDS011;12904;50.088;11.414;2023-03-23T14:22:31;3.50;;;1.08;;
24813;SDS011;12904;50.088;11.414;2023-03-23T14:24:59;1.77;;;0.98;;
24813;SDS011;12904;50.088;11.414;2023-03-23T14:27:33;2.20;;;0.95;;
24813;SDS011;12904;50.088;11.414;2023-03-23T14:30:04;2.17;;;0.80;;
24813;SDS011;12904;50.088;11.414;2023-03-23T14:32:33;1.33;;;1.08;;
24813;SDS011;12904;50.088;11.414;2023-03-23T14:35:01;1.10;;;0.98;;
24813;SDS011;12904;50.088;11.414;2023-03-23T14:37:32;1.30;;;1.20;;
24813;SDS011;12904;50.088;11.414;2023-03-23T14:40:00;1.40;;;1.30;;
24813;SDS011;12904;50.088;11.414;2023-03-23T14:42:30;1.10;;;1.00;;
24813;SDS011;12904;50.088;11.414;2023-03-23T14:44:59;1.67;;;1.38;;
24813;SDS011;12904;50.088;11.414;2023-03-23T14:47:26;2.08;;;1.13;;
24813;SDS011;12904;50.088;11.414;2023-03-23T14:49:57;1.30;;;1.05;;
24813;SDS011;12904;50.088;11.414;2023-03-23T14:52:25;0.82;;;0.80;;
24813;SDS011;12904;50.088;11.414;2023-03-23T14:54:53;1.13;;;0.90;;
24813;SDS011;12904;50.088;11.414;2023-03-23T14:57:27;2.20;;;0.80;;
24813;SDS011;12904;50.088;11.414;2023-03-23T14:59:54;1.55;;;0.95;;
24813;SDS011;12904;50.088;11.414;2023-03-23T15:02:54;3.17;;;1.30;;
24813;SDS011;12904;50.088;11.414;2023-03-23T15:05:16;1.20;;;0.70;;
24813;SDS011;12904;50.088;11.414;2023-03-23T15:07:47;1.45;;;0.90;;
24813;SDS011;12904;50.088;11.414;2023-03-23T15:10:18;0.88;;;0.88;;
24813;SDS011;12904;50.088;11.414;2023-03-23T15:12:46;1.88;;;0.88;;
24813;SDS011;12904;50.088;11.414;2023-03-23T15:15:33;0.70;;;0.70;;
24813;SDS011;12904;50.088;11.414;2023-03-23T15:18:00;1.15;;;0.77;;
24813;SDS011;12904;50.088;11.414;2023-03-23T15:20:31;1.52;;;0.77;;
24813;SDS011;12904;50.088;11.414;2023-03-23T15:23:16;0.63;;;0.63;;
24813;SDS011;12904;50.088;11.414;2023-03-23T15:25:50;0.63;;;0.63;;
24813;SDS011;12904;50.088;11.414;2023-03-23T15:28:21;1.70;;;0.73;;
24813;SDS011;12904;50.088;11.414;2023-03-23T15:30:57;2.28;;;0.70;;
24813;SDS011;12904;50.088;11.414;2023-03-23T15:33:26;1.95;;;0.75;;
24813;SDS011;12904;50.088;11.414;2023-03-23T15:35:58;1.92;;;0.65;;
24813;SDS011;12904;50.088;11.414;2023-03-23T15:38:24;0.70;;;0.70;;
24813;SDS011;12904;50.088;11.414;2023-03-23T15:40:55;0.68;;;0.60;;
24813;SDS011;12904;50.088;11.414;2023-03-23T15:43:32;0.98;;;0.75;;
24813;SDS011;12904;50.088;11.414;2023-03-23T15:46:04;1.52;;;0.70;;
24813;SDS011;12904;50.088;11.414;2023-03-23T15:49:04;0.50;;;0.50;;
24813;SDS011;12904;50.088;11.414;2023-03-23T15:51:34;0.60;;;0.60;;
24813;SDS011;12904;50.088;11.414;2023-03-23T15:54:02;0.60;;;0.60;;
24813;SDS011;12904;50.088;11.414;2023-03-23T15:56:27;0.60;;;0.60;;
24813;SDS011;12904;50.088;11.414;2023-03-23T15:58:54;0.77;;;0.70;;
24813;SDS011;12904;50.088;11.414;2023-03-23T16:01:24;3.90;;;0.60;;
24813;SDS011;12904;50.088;11.414;2023-03-23T16:03:52;0.75;;;0.70;;
24813;SDS011;12904;50.088;11.414;2023-03-23T16:06:29;0.82;;;0.73;;
24813;SDS011;12904;50.088;11.414;2023-03-23T16:08:56;2.63;;;0.60;;
24813;SDS011;12904;50.088;11.414;2023-03-23T16:11:22;1.38;;;0.70;;
24813;SDS011;12904;50.088;11.414;2023-03-23T16:13:50;0.95;;;0.60;;
24813;SDS011;12904;50.088;11.414;2023-03-23T16:16:17;0.63;;;0.60;;
24813;SDS011;12904;50.088;11.414;2023-03-23T16:18:45;2.30;;;0.77;;
24813;SDS011;12904;50.088;11.414;2023-03-23T16:21:10;1.90;;;0.60;;
24813;SDS011;12904;50.088;11.414;2023-03-23T16:23:36;1.45;;;0.70;;
24813;SDS011;12904;50.088;11.414;2023-03-23T16:26:02;1.10;;;0.50;;
24813;SDS011;12904;50.088;11.414;2023-03-23T16:28:28;1.92;;;0.70;;
24813;SDS011;12904;50.088;11.414;2023-03-23T16:30:53;0.68;;;0.68;;
24813;SDS011;12904;50.088;11.414;2023-03-23T16:33:19;1.95;;;0.50;;
24813;SDS011;12904;50.088;11.414;2023-03-23T16:35:45;0.43;;;0.43;;
24813;SDS011;12904;50.088;11.414;2023-03-23T16:38:11;1.40;;;0.70;;
24813;SDS011;12904;50.088;11.414;2023-03-23T16:40:40;0.95;;;0.60;;
24813;SDS011;12904;50.088;11.414;2023-03-23T16:43:07;0.77;;;0.70;;
24813;SDS011;12904;50.088;11.414;2023-03-23T16:45:33;0.80;;;0.60;;
24813;SDS011;12904;50.088;11.414;2023-03-23T16:47:59;0.80;;;0.60;;
24813;SDS011;12904;50.088;11.414;2023-03-23T16:50:26;0.65;;;0.65;;
24813;SDS011;12904;50.088;11.414;2023-03-23T16:52:54;1.20;;;0.80;;
24813;SDS011;12904;50.088;11.414;2023-03-23T16:55:19;1.35;;;0.65;;
24813;SDS011;12904;50.088;11.414;2023-03-23T16:57:45;1.15;;;0.70;;
24813;SDS011;12904;50.088;11.414;2023-03-23T17:00:14;2.78;;;0.70;;
24813;SDS011;12904;50.088;11.414;2023-03-23T17:02:44;1.75;;;0.70;;